METAR Data
IDs: Format: Raw Decoded Include TAF

Data at: 0826 UTC 18 Sep 2021

EFMI 180820Z AUTO 08004KT 030V150 CAVOK 09/04 Q1028